Time;durP1;ratioP1;P1;durP2;ratioP2;P2;SDS_P1;SDS_P2;PMS_P1;PMS_P2;Temp;Humidity;BMP_temperature;BMP_pressure;BME280_temperature;BME280_humidity;BME280_pressure;Samples;Min_cycle;Max_cycle;Signal;HPM_P1;HPM_P2
2023/08/30 00:00:45;;;;;;;21.77;18.40;;;14.00;99.90;;;;;;5032112;28;20051;-71
2023/08/30 00:03:12;;;;;;;24.20;18.80;;;14.00;99.90;;;;;;5052525;28;20041;-69
2023/08/30 00:05:41;;;;;;;24.35;19.50;;;13.90;99.90;;;;;;5048339;28;20057;-70
2023/08/30 00:08:07;;;;;;;21.55;19.25;;;13.90;99.90;;;;;;5048053;28;20105;-70
2023/08/30 00:10:33;;;;;;;21.33;18.45;;;13.90;99.90;;;;;;5049527;28;20134;-70
2023/08/30 00:12:59;;;;;;;22.20;17.73;;;13.90;99.90;;;;;;5054414;28;20532;-70
2023/08/30 00:15:25;;;;;;;20.65;18.45;;;13.90;99.90;;;;;;5051284;28;20168;-70
2023/08/30 00:17:54;;;;;;;20.73;18.48;;;13.90;99.90;;;;;;5054339;28;20041;-70
2023/08/30 00:20:21;;;;;;;21.65;19.35;;;13.90;99.90;;;;;;5037639;28;20056;-71
2023/08/30 00:22:48;;;;;;;20.80;18.45;;;13.90;99.90;;;;;;5037620;28;20048;-70
2023/08/30 00:25:15;;;;;;;22.92;19.80;;;13.80;99.90;;;;;;5053018;28;20128;-71
2023/08/30 00:27:41;;;;;;;20.65;18.45;;;13.80;99.90;;;;;;5048808;28;20049;-71
2023/08/30 00:30:09;;;;;;;22.10;19.17;;;13.80;99.90;;;;;;5033700;28;20041;-70
2023/08/30 00:32:35;;;;;;;25.45;18.48;;;13.80;99.90;;;;;;5046910;28;20101;-70
2023/08/30 00:35:01;;;;;;;21.95;19.60;;;13.80;99.90;;;;;;5021202;28;20124;-70
2023/08/30 00:37:26;;;;;;;21.17;18.98;;;13.80;99.90;;;;;;5048723;28;20464;-70
2023/08/30 00:39:52;;;;;;;23.10;19.23;;;13.80;99.90;;;;;;5050513;28;20068;-71
2023/08/30 00:42:18;;;;;;;22.70;20.30;;;13.80;99.90;;;;;;5048569;28;20048;-70
2023/08/30 00:44:43;;;;;;;22.80;20.35;;;13.80;99.90;;;;;;5052837;28;20068;-71
2023/08/30 00:47:09;;;;;;;21.38;18.80;;;13.80;99.90;;;;;;5032503;28;20040;-71
2023/08/30 00:49:35;;;;;;;23.33;19.50;;;13.80;99.90;;;;;;5050611;28;20041;-71
2023/08/30 00:52:08;;;;;;;24.92;20.40;;;13.80;99.90;;;;;;5052267;28;20049;-71
2023/08/30 00:54:34;;;;;;;21.40;19.15;;;13.80;99.90;;;;;;5067986;28;20084;-71
2023/08/30 00:57:01;;;;;;;19.02;17.02;;;13.80;99.90;;;;;;5050134;28;20040;-71
2023/08/30 00:59:27;;;;;;;20.23;18.08;;;13.80;99.90;;;;;;5048161;28;20430;-71
2023/08/30 01:01:53;;;;;;;23.17;19.02;;;13.70;99.90;;;;;;5036836;28;20044;-71
2023/08/30 01:04:19;;;;;;;22.80;19.35;;;13.70;99.90;;;;;;5056455;28;20116;-71
2023/08/30 01:06:45;;;;;;;22.38;18.85;;;13.70;99.90;;;;;;5019502;28;20064;-71
2023/08/30 01:09:12;;;;;;;23.05;19.17;;;13.60;99.90;;;;;;5050630;28;20037;-71
2023/08/30 01:12:02;;;;;;;21.88;18.55;;;13.60;99.90;;;;;;5052009;28;20076;-72
2023/08/30 01:14:51;;;;;;;22.05;18.30;;;13.60;99.90;;;;;;5049979;28;20079;-71
2023/08/30 01:17:20;;;;;;;20.65;18.23;;;13.50;99.90;;;;;;5044025;28;20128;-72
2023/08/30 01:20:35;;;;;;;21.55;18.17;;;13.40;99.90;;;;;;5046281;28;20042;-71
2023/08/30 01:22:58;;;;;;;20.08;17.40;;;13.40;99.90;;;;;;5032167;28;20064;-71
2023/08/30 01:25:33;;;;;;;21.35;18.25;;;13.40;99.90;;;;;;5048726;28;20098;-72
2023/08/30 01:28:04;;;;;;;19.98;17.88;;;13.40;99.90;;;;;;5048066;28;20044;-72
2023/08/30 01:30:32;;;;;;;18.90;16.70;;;13.40;99.90;;;;;;5047693;28;20048;-71
2023/08/30 01:33:00;;;;;;;20.08;16.77;;;13.30;99.90;;;;;;5045471;28;20060;-71
2023/08/30 01:35:32;;;;;;;18.35;16.05;;;13.30;99.90;;;;;;5046817;28;20049;-71
2023/08/30 01:37:59;;;;;;;20.25;17.08;;;13.30;99.90;;;;;;5053515;28;20041;-71
2023/08/30 01:40:29;;;;;;;18.13;15.55;;;13.20;99.90;;;;;;5050330;28;20037;-71
2023/08/30 01:42:57;;;;;;;16.98;15.18;;;13.20;99.90;;;;;;5048793;28;20098;-71
2023/08/30 01:45:23;;;;;;;20.58;18.38;;;13.20;99.90;;;;;;5034708;28;20078;-71
2023/08/30 01:47:52;;;;;;;20.25;18.05;;;13.20;99.90;;;;;;5018809;28;20037;-71
2023/08/30 01:50:19;;;;;;;19.38;16.13;;;13.20;99.90;;;;;;5048330;28;20526;-71
2023/08/30 01:52:46;;;;;;;18.00;15.90;;;13.10;99.90;;;;;;5049733;28;20048;-71
2023/08/30 01:55:14;;;;;;;20.75;17.63;;;13.10;99.90;;;;;;5050693;28;20388;-71
2023/08/30 01:57:40;;;;;;;20.63;18.42;;;13.00;99.90;;;;;;5048149;28;20052;-72
2023/08/30 02:00:06;;;;;;;21.48;18.77;;;13.00;99.90;;;;;;5039509;28;20445;-71
2023/08/30 02:02:33;;;;;;;21.13;18.55;;;13.00;99.90;;;;;;5038340;28;20076;-71
2023/08/30 02:04:59;;;;;;;21.10;18.85;;;13.10;99.90;;;;;;5054738;28;20076;-71
2023/08/30 02:07:39;;;;;;;21.83;19.48;;;13.00;99.90;;;;;;5041992;28;20068;-71
2023/08/30 02:10:17;;;;;;;21.88;19.30;;;13.00;99.90;;;;;;5049875;28;20092;-71
2023/08/30 02:12:47;;;;;;;21.00;18.75;;;12.90;99.90;;;;;;5055402;28;20112;-71
2023/08/30 02:15:14;;;;;;;22.63;18.27;;;13.00;99.90;;;;;;5054459;28;20048;-71
2023/08/30 02:17:40;;;;;;;19.58;17.52;;;12.90;99.90;;;;;;5052220;28;20042;-71
2023/08/30 02:20:07;;;;;;;20.85;18.65;;;13.00;99.90;;;;;;5065200;28;20055;-71
2023/08/30 02:22:33;;;;;;;20.58;17.48;;;12.90;99.90;;;;;;5055903;28;20051;-71
2023/08/30 02:25:01;;;;;;;20.55;17.92;;;12.90;99.90;;;;;;5034496;28;20057;-71
2023/08/30 02:27:27;;;;;;;21.88;17.42;;;12.90;99.90;;;;;;5039188;28;20051;-71
2023/08/30 02:29:52;;;;;;;18.60;16.55;;;12.90;99.90;;;;;;5024693;28;20084;-71
2023/08/30 02:32:20;;;;;;;20.38;17.80;;;12.90;99.90;;;;;;5050726;28;20052;-71
2023/08/30 02:34:51;;;;;;;20.05;17.08;;;12.90;99.90;;;;;;5037101;28;20044;-71
2023/08/30 02:37:17;;;;;;;18.90;16.38;;;12.90;99.90;;;;;;5050057;28;20048;-71
2023/08/30 02:39:42;;;;;;;19.13;16.98;;;12.90;99.90;;;;;;5054548;28;20728;-71
2023/08/30 02:42:08;;;;;;;19.55;16.48;;;12.80;99.90;;;;;;5032506;28;20138;-71
2023/08/30 02:44:34;;;;;;;19.20;16.10;;;12.80;99.90;;;;;;5049683;28;20461;-70
2023/08/30 02:46:59;;;;;;;21.02;17.08;;;12.80;99.90;;;;;;5042370;28;20043;-71
2023/08/30 02:49:25;;;;;;;20.23;16.88;;;12.80;99.90;;;;;;5058635;28;20051;-71
2023/08/30 02:51:51;;;;;;;17.02;15.15;;;12.70;99.90;;;;;;5052246;28;20103;-71
2023/08/30 02:54:17;;;;;;;19.13;16.10;;;12.60;99.90;;;;;;5048449;28;20076;-71
2023/08/30 02:56:44;;;;;;;19.85;17.20;;;12.60;99.90;;;;;;5038827;28;20191;-71
2023/08/30 02:59:10;;;;;;;19.95;16.38;;;12.60;99.90;;;;;;5036589;28;20061;-71
2023/08/30 03:01:36;;;;;;;18.98;16.35;;;12.50;99.90;;;;;;5037373;28;20025;-71
2023/08/30 03:04:04;;;;;;;23.17;15.40;;;12.50;99.90;;;;;;5051214;28;20476;-71
2023/08/30 03:06:29;;;;;;;17.58;15.77;;;12.50;99.90;;;;;;5036388;28;20108;-71
2023/08/30 03:08:55;;;;;;;17.83;15.88;;;12.50;99.90;;;;;;5051394;28;20079;-71
2023/08/30 03:11:21;;;;;;;18.65;15.40;;;12.40;99.90;;;;;;5055090;28;20049;-71
2023/08/30 03:13:46;;;;;;;18.80;15.75;;;12.40;99.90;;;;;;5049440;28;20052;-71
2023/08/30 03:16:16;;;;;;;17.50;15.70;;;12.40;99.90;;;;;;5050253;28;20067;-71
2023/08/30 03:18:43;;;;;;;19.85;16.60;;;12.40;99.90;;;;;;5035710;28;20052;-71
2023/08/30 03:21:10;;;;;;;19.27;15.20;;;12.30;99.90;;;;;;5051059;28;20083;-71
2023/08/30 03:23:36;;;;;;;18.45;16.55;;;12.30;99.90;;;;;;5034075;28;20084;-71
2023/08/30 03:26:12;;;;;;;17.92;16.02;;;12.30;99.90;;;;;;5039542;28;20590;-71
2023/08/30 03:28:38;;;;;;;16.13;14.27;;;12.30;99.90;;;;;;5053278;28;20052;-71
2023/08/30 03:31:13;;;;;;;18.77;15.70;;;12.30;99.90;;;;;;5054797;28;20094;-71
2023/08/30 03:33:41;;;;;;;18.67;15.95;;;12.20;99.90;;;;;;5050901;28;20088;-70
2023/08/30 03:36:09;;;;;;;18.73;15.75;;;12.20;99.90;;;;;;5037964;28;20052;-71
2023/08/30 03:38:34;;;;;;;17.67;14.85;;;12.20;99.90;;;;;;5056095;28;20076;-71
2023/08/30 03:41:00;;;;;;;15.70;14.00;;;12.20;99.90;;;;;;5038931;28;20062;-71
2023/08/30 03:43:26;;;;;;;16.63;14.82;;;12.30;99.90;;;;;;5033170;28;20060;-71
2023/08/30 03:45:52;;;;;;;17.85;14.82;;;12.20;99.90;;;;;;5050247;28;20072;-71
2023/08/30 03:48:18;;;;;;;18.23;14.82;;;12.20;99.90;;;;;;5037990;28;20051;-71
2023/08/30 03:50:43;;;;;;;17.38;15.10;;;12.20;99.90;;;;;;5049421;28;20044;-70
2023/08/30 03:53:09;;;;;;;18.27;15.07;;;12.20;99.90;;;;;;5035842;28;20080;-71
2023/08/30 03:55:35;;;;;;;19.13;16.15;;;12.10;99.90;;;;;;5049834;28;20037;-71
2023/08/30 03:58:00;;;;;;;17.95;15.45;;;12.10;99.90;;;;;;5052721;28;20726;-71
2023/08/30 04:00:26;;;;;;;17.95;14.65;;;12.10;99.90;;;;;;5040478;28;20041;-71
2023/08/30 04:02:52;;;;;;;17.60;14.73;;;12.10;99.90;;;;;;5052825;28;20056;-71
2023/08/30 04:05:17;;;;;;;18.83;15.85;;;12.10;99.90;;;;;;5036109;28;20086;-71
2023/08/30 04:07:43;;;;;;;16.90;15.10;;;12.10;99.90;;;;;;5051443;28;20052;-71
2023/08/30 04:10:09;;;;;;;17.02;15.23;;;12.10;99.90;;;;;;5047697;28;20798;-71
2023/08/30 04:12:35;;;;;;;18.48;14.73;;;12.10;99.90;;;;;;5035881;28;20051;-71
2023/08/30 04:15:02;;;;;;;17.00;15.20;;;12.00;99.90;;;;;;5035233;28;20055;-71
2023/08/30 04:17:28;;;;;;;17.92;15.50;;;12.00;99.90;;;;;;5020644;28;20068;-71
2023/08/30 04:19:54;;;;;;;18.77;15.75;;;12.00;99.90;;;;;;5052697;28;20489;-71
2023/08/30 04:22:19;;;;;;;18.45;15.02;;;12.00;99.90;;;;;;5049864;28;20053;-71
2023/08/30 04:24:46;;;;;;;19.65;15.60;;;12.10;99.90;;;;;;5048716;28;20045;-71
2023/08/30 04:27:12;;;;;;;18.15;14.88;;;12.10;99.90;;;;;;5036897;28;20049;-71
2023/08/30 04:29:37;;;;;;;19.02;15.68;;;12.10;99.90;;;;;;5033510;28;20044;-71
2023/08/30 04:32:04;;;;;;;18.67;16.15;;;12.00;99.90;;;;;;5049351;28;20176;-71
2023/08/30 04:34:30;;;;;;;18.42;15.23;;;12.00;99.90;;;;;;5049972;28;20370;-71
2023/08/30 04:36:56;;;;;;;18.73;16.00;;;12.00;99.90;;;;;;5050552;28;20036;-70
2023/08/30 04:39:22;;;;;;;18.13;15.85;;;12.00;99.90;;;;;;5022368;28;20063;-71
2023/08/30 04:41:48;;;;;;;20.30;15.98;;;12.00;99.90;;;;;;5039444;28;20069;-71
2023/08/30 04:44:13;;;;;;;19.30;16.10;;;12.10;99.90;;;;;;5052363;28;20621;-71
2023/08/30 04:46:39;;;;;;;20.13;16.70;;;12.10;99.90;;;;;;5034842;28;20037;-70
2023/08/30 04:49:05;;;;;;;20.40;16.80;;;12.10;99.90;;;;;;5034517;28;20037;-71
2023/08/30 04:51:30;;;;;;;20.63;16.98;;;12.10;99.90;;;;;;5038016;28;20128;-71
2023/08/30 04:53:57;;;;;;;20.15;17.67;;;12.10;99.90;;;;;;5045760;28;20041;-71
2023/08/30 04:56:23;;;;;;;18.63;16.15;;;12.10;99.90;;;;;;5036771;28;20037;-71
2023/08/30 04:58:50;;;;;;;20.13;17.00;;;12.10;99.90;;;;;;5032339;28;20138;-70
2023/08/30 05:01:15;;;;;;;22.30;17.10;;;12.10;99.90;;;;;;5037528;28;20049;-71
2023/08/30 05:03:41;;;;;;;21.10;17.70;;;12.10;99.90;;;;;;5049717;28;20048;-71
2023/08/30 05:06:07;;;;;;;19.83;16.38;;;12.10;99.90;;;;;;5042312;28;20545;-71
2023/08/30 05:08:33;;;;;;;21.42;17.13;;;12.10;99.90;;;;;;5035223;28;20053;-71
2023/08/30 05:10:59;;;;;;;19.83;16.50;;;12.10;99.90;;;;;;5032118;28;20057;-71
2023/08/30 05:13:24;;;;;;;21.40;16.58;;;12.10;99.90;;;;;;5050091;28;20095;-71
2023/08/30 05:15:50;;;;;;;20.67;17.02;;;12.10;99.90;;;;;;5049975;28;20037;-71
2023/08/30 05:18:16;;;;;;;23.10;17.02;;;12.10;99.90;;;;;;5035997;28;20071;-71
2023/08/30 05:20:42;;;;;;;22.88;17.75;;;12.20;99.90;;;;;;5049612;28;20048;-71
2023/08/30 05:23:08;;;;;;;18.35;15.60;;;12.20;99.90;;;;;;5043230;28;20764;-72
2023/08/30 05:25:33;;;;;;;24.38;17.33;;;12.20;99.90;;;;;;5035930;28;20041;-71
2023/08/30 05:27:59;;;;;;;22.42;17.17;;;12.30;99.90;;;;;;5055030;28;20099;-71
2023/08/30 05:30:25;;;;;;;19.48;16.08;;;12.30;99.90;;;;;;5053510;28;20048;-71
2023/08/30 05:32:50;;;;;;;20.42;16.60;;;12.30;99.90;;;;;;5015912;28;20030;-71
2023/08/30 05:35:16;;;;;;;21.45;17.48;;;12.40;99.90;;;;;;5051485;28;20118;-71
2023/08/30 05:37:42;;;;;;;21.27;16.75;;;12.40;99.90;;;;;;5053169;28;20049;-71
2023/08/30 05:40:08;;;;;;;19.73;15.63;;;12.40;99.90;;;;;;5042054;28;20037;-71
2023/08/30 05:42:34;;;;;;;21.10;16.15;;;12.50;99.90;;;;;;5040313;28;20560;-71
2023/08/30 05:44:59;;;;;;;20.05;15.20;;;12.50;99.90;;;;;;5037380;28;20049;-71
2023/08/30 05:47:25;;;;;;;19.42;16.25;;;12.50;99.90;;;;;;5056513;28;20496;-71
2023/08/30 05:49:51;;;;;;;20.08;15.68;;;12.50;99.90;;;;;;5053905;28;20048;-71
2023/08/30 05:52:18;;;;;;;20.98;16.23;;;12.50;99.90;;;;;;5054300;28;20064;-71
2023/08/30 05:54:44;;;;;;;19.77;17.40;;;12.60;99.90;;;;;;5025227;28;20052;-70
2023/08/30 05:57:10;;;;;;;20.45;15.50;;;12.60;99.90;;;;;;5058780;28;20576;-71
2023/08/30 05:59:35;;;;;;;20.35;15.73;;;12.60;99.90;;;;;;5052659;28;20048;-71
2023/08/30 06:02:01;;;;;;;19.60;15.77;;;12.70;99.90;;;;;;5032707;28;20415;-71
2023/08/30 06:04:27;;;;;;;22.65;17.40;;;12.70;99.90;;;;;;5036264;28;20042;-70
2023/08/30 06:06:53;;;;;;;20.48;15.68;;;12.70;99.90;;;;;;5059311;28;20440;-71
2023/08/30 06:09:18;;;;;;;19.02;14.82;;;12.70;99.90;;;;;;5056255;28;20068;-72
2023/08/30 06:11:44;;;;;;;18.85;14.63;;;12.80;99.90;;;;;;5023197;28;20057;-71
2023/08/30 06:14:10;;;;;;;19.98;15.13;;;12.80;99.90;;;;;;5038529;28;20051;-71
2023/08/30 06:16:36;;;;;;;18.75;14.60;;;12.80;99.90;;;;;;5037626;28;20033;-71
2023/08/30 06:19:02;;;;;;;19.52;15.05;;;12.80;99.90;;;;;;5048849;28;20049;-71
2023/08/30 06:21:28;;;;;;;18.23;13.95;;;12.90;99.90;;;;;;5052463;28;20045;-71
2023/08/30 06:23:53;;;;;;;17.85;14.68;;;12.90;99.90;;;;;;5033197;28;20586;-71
2023/08/30 06:26:19;;;;;;;19.23;15.15;;;13.00;99.90;;;;;;5035340;28;20067;-71
2023/08/30 06:28:45;;;;;;;20.00;14.80;;;13.00;99.90;;;;;;5017727;28;20050;-71
2023/08/30 06:31:11;;;;;;;19.77;14.07;;;13.00;99.90;;;;;;5023080;28;20049;-70
2023/08/30 06:33:38;;;;;;;20.25;15.52;;;13.10;99.90;;;;;;5038906;28;20052;-71
2023/08/30 06:36:04;;;;;;;18.95;14.73;;;13.10;99.90;;;;;;5039527;28;20603;-72
2023/08/30 06:38:30;;;;;;;18.13;15.60;;;13.10;99.90;;;;;;5038451;28;20049;-72
2023/08/30 06:40:58;;;;;;;18.50;14.95;;;13.20;99.90;;;;;;4990826;28;20044;-71
2023/08/30 06:43:24;;;;;;;19.77;15.77;;;13.30;99.90;;;;;;5055334;28;20104;-71
2023/08/30 06:45:49;;;;;;;23.05;14.82;;;13.30;99.90;;;;;;5007406;28;20132;-71
2023/08/30 06:48:15;;;;;;;18.08;14.10;;;13.40;99.90;;;;;;5036563;28;20072;-71
2023/08/30 06:50:41;;;;;;;19.00;15.00;;;13.50;99.90;;;;;;5022477;28;20048;-72
2023/08/30 06:53:07;;;;;;;19.60;14.82;;;13.60;99.90;;;;;;5028860;28;20037;-71
2023/08/30 06:55:35;;;;;;;17.58;13.93;;;13.70;99.90;;;;;;5021681;28;20773;-72
2023/08/30 06:58:01;;;;;;;17.23;14.25;;;13.70;99.90;;;;;;5006834;28;20037;-71
2023/08/30 07:00:26;;;;;;;19.88;14.38;;;13.80;99.90;;;;;;5021775;28;20104;-72
2023/08/30 07:02:52;;;;;;;19.35;14.35;;;13.80;99.90;;;;;;5030231;28;20390;-71
2023/08/30 07:05:18;;;;;;;20.15;14.25;;;13.90;99.90;;;;;;5030508;28;20048;-72
2023/08/30 07:07:43;;;;;;;18.38;14.00;;;14.00;99.90;;;;;;5039242;28;20049;-71
2023/08/30 07:10:09;;;;;;;19.20;13.85;;;14.00;99.90;;;;;;5018731;28;20106;-71
2023/08/30 07:12:35;;;;;;;20.88;15.05;;;14.10;99.90;;;;;;5025332;28;20059;-72
2023/08/30 07:15:03;;;;;;;19.85;14.38;;;14.10;99.90;;;;;;5029890;28;20052;-71
2023/08/30 07:17:28;;;;;;;17.15;13.90;;;14.10;99.90;;;;;;5007193;28;20071;-72
2023/08/30 07:19:54;;;;;;;19.70;14.75;;;14.10;99.90;;;;;;5005771;28;20131;-71
2023/08/30 07:22:20;;;;;;;18.35;14.23;;;14.10;99.90;;;;;;5040601;28;20048;-71
2023/08/30 07:24:46;;;;;;;18.67;14.00;;;14.10;99.90;;;;;;5023649;28;20052;-71
2023/08/30 07:27:14;;;;;;;19.33;14.73;;;14.10;99.90;;;;;;5035754;28;20086;-72
2023/08/30 07:29:40;;;;;;;18.77;13.90;;;14.10;99.90;;;;;;5005559;28;20610;-72
2023/08/30 07:32:07;;;;;;;18.48;14.50;;;14.20;99.90;;;;;;5035442;28;20048;-72
2023/08/30 07:34:32;;;;;;;19.35;14.57;;;14.20;99.90;;;;;;5024170;28;20041;-72
2023/08/30 07:36:58;;;;;;;18.63;14.02;;;14.20;99.90;;;;;;5003229;28;20136;-71
2023/08/30 07:39:24;;;;;;;19.83;14.48;;;14.20;99.90;;;;;;5019950;28;20049;-72
2023/08/30 07:41:50;;;;;;;20.83;14.32;;;14.20;99.90;;;;;;5039190;28;20075;-71
2023/08/30 07:44:16;;;;;;;17.67;14.18;;;14.20;99.90;;;;;;5037405;28;20617;-72
2023/08/30 07:46:42;;;;;;;18.88;13.90;;;14.30;99.90;;;;;;5037722;28;20041;-72
2023/08/30 07:49:07;;;;;;;18.63;14.18;;;14.30;99.90;;;;;;5004145;28;20053;-71
2023/08/30 07:51:33;;;;;;;20.23;14.48;;;14.30;99.90;;;;;;5023561;28;20598;-72
2023/08/30 07:53:59;;;;;;;20.52;15.20;;;14.40;99.90;;;;;;5037481;28;20391;-71
2023/08/30 07:56:25;;;;;;;20.38;14.55;;;14.50;99.90;;;;;;5005685;28;20116;-72
2023/08/30 07:58:51;;;;;;;17.98;14.18;;;14.50;99.90;;;;;;5020646;28;20044;-72
2023/08/30 08:01:17;;;;;;;20.95;14.95;;;14.60;99.90;;;;;;5022536;28;20055;-72
2023/08/30 08:03:42;;;;;;;18.83;13.77;;;14.70;99.90;;;;;;5038236;28;20080;-72
2023/08/30 08:06:08;;;;;;;17.95;14.63;;;14.90;99.90;;;;;;5040676;28;20052;-72
2023/08/30 08:08:34;;;;;;;19.73;15.10;;;14.90;99.90;;;;;;5005337;28;20052;-72
2023/08/30 08:11:00;;;;;;;21.33;14.85;;;15.10;99.90;;;;;;5031833;28;20041;-72
2023/08/30 08:13:25;;;;;;;19.75;14.35;;;15.20;99.90;;;;;;5023092;28;20041;-72
2023/08/30 08:15:51;;;;;;;17.58;13.68;;;15.40;99.90;;;;;;5023630;28;20036;-72
2023/08/30 08:18:27;;;;;;;22.40;15.52;;;15.50;99.90;;;;;;5097391;27;21017;-71
2023/08/30 08:20:52;;;;;;;21.17;15.38;;;15.70;99.90;;;;;;5065832;28;20048;-71
2023/08/30 08:23:18;;;;;;;20.90;15.73;;;15.80;99.90;;;;;;5074266;28;20083;-71
2023/08/30 08:25:44;;;;;;;22.25;15.57;;;15.80;99.90;;;;;;5094282;28;20081;-71
2023/08/30 08:28:09;;;;;;;21.67;16.08;;;15.90;99.90;;;;;;5076700;28;20075;-71
2023/08/30 08:30:36;;;;;;;19.08;14.10;;;15.90;99.90;;;;;;5099850;28;20101;-72
2023/08/30 08:33:02;;;;;;;20.88;14.68;;;15.90;99.90;;;;;;5097147;28;20059;-72
2023/08/30 08:35:28;;;;;;;21.20;14.98;;;15.90;99.90;;;;;;5064183;28;20052;-72
2023/08/30 08:37:53;;;;;;;22.02;15.63;;;15.80;99.90;;;;;;5047901;28;20059;-71
2023/08/30 08:40:19;;;;;;;19.40;14.75;;;15.80;99.90;;;;;;5096936;28;20040;-71
2023/08/30 08:42:50;;;;;;;17.75;14.93;;;15.80;99.90;;;;;;5063376;28;20108;-73
2023/08/30 08:45:17;;;;;;;19.87;15.00;;;15.80;99.90;;;;;;5081202;28;20096;-72
2023/08/30 08:47:44;;;;;;;18.98;15.43;;;15.80;99.90;;;;;;5080423;28;20051;-73
2023/08/30 08:50:10;;;;;;;19.27;14.07;;;15.80;99.90;;;;;;5076051;28;20055;-73
2023/08/30 08:52:35;;;;;;;18.92;13.90;;;15.90;99.90;;;;;;5098873;28;20043;-72
2023/08/30 08:55:02;;;;;;;19.35;14.27;;;15.90;99.90;;;;;;5098521;28;20063;-72
2023/08/30 08:57:31;;;;;;;17.92;14.50;;;16.10;99.90;;;;;;5098128;28;20384;-72
2023/08/30 08:59:57;;;;;;;20.38;15.05;;;16.20;99.90;;;;;;5097277;28;20074;-72
2023/08/30 09:02:23;;;;;;;20.42;15.15;;;16.20;99.90;;;;;;5079643;28;20070;-72
2023/08/30 09:04:49;;;;;;;20.27;14.73;;;16.20;99.90;;;;;;5095380;28;20044;-72
2023/08/30 09:07:15;;;;;;;18.85;14.55;;;16.30;99.90;;;;;;5074185;28;20155;-72
2023/08/30 09:09:41;;;;;;;17.88;14.23;;;16.30;99.90;;;;;;5095592;28;20055;-72
2023/08/30 09:12:07;;;;;;;17.73;13.85;;;16.30;99.90;;;;;;5098110;28;20039;-73
2023/08/30 09:14:32;;;;;;;18.23;13.43;;;16.20;99.90;;;;;;5096899;28;20032;-72
2023/08/30 09:17:02;;;;;;;15.55;13.13;;;16.20;99.90;;;;;;5094898;28;20044;-72
2023/08/30 09:19:29;;;;;;;18.75;14.50;;;16.20;99.90;;;;;;5092347;28;20048;-73
2023/08/30 09:21:59;;;;;;;18.73;14.15;;;16.20;99.90;;;;;;5094052;28;20040;-73
2023/08/30 09:24:25;;;;;;;17.60;13.45;;;16.10;99.90;;;;;;5093940;28;20040;-72
2023/08/30 09:26:53;;;;;;;16.17;12.30;;;16.00;99.90;;;;;;5074439;28;20509;-72
2023/08/30 09:29:21;;;;;;;18.08;13.05;;;16.00;99.90;;;;;;5065162;28;20048;-72
2023/08/30 09:31:53;;;;;;;16.45;12.60;;;16.00;99.90;;;;;;5065332;28;20075;-72
2023/08/30 09:34:24;;;;;;;16.52;12.60;;;15.90;99.90;;;;;;5084941;28;20116;-72
2023/08/30 09:36:50;;;;;;;16.60;12.60;;;15.90;99.90;;;;;;5077024;28;20060;-72
2023/08/30 09:39:15;;;;;;;15.90;13.20;;;15.80;99.90;;;;;;5061675;28;20089;-72
2023/08/30 09:41:43;;;;;;;16.65;12.43;;;15.70;99.90;;;;;;5065624;28;20994;-72
2023/08/30 09:44:13;;;;;;;17.15;12.93;;;15.70;99.90;;;;;;5064990;28;20068;-72
2023/08/30 09:46:46;;;;;;;18.80;14.38;;;15.60;99.90;;;;;;5058538;28;20129;-72
2023/08/30 09:49:12;;;;;;;17.40;12.88;;;15.60;99.90;;;;;;5046317;28;20119;-72
2023/08/30 09:51:43;;;;;;;17.13;13.48;;;15.50;99.90;;;;;;5067501;28;20036;-72
2023/08/30 09:54:17;;;;;;;19.25;14.30;;;15.50;99.90;;;;;;5066431;28;20070;-72
2023/08/30 09:56:44;;;;;;;18.92;13.57;;;15.50;99.90;;;;;;5078727;28;20043;-72
2023/08/30 09:59:11;;;;;;;22.08;14.70;;;15.40;99.90;;;;;;5055546;28;20087;-71
2023/08/30 10:01:38;;;;;;;21.00;14.50;;;15.40;99.90;;;;;;5039284;28;20040;-72
2023/08/30 10:04:05;;;;;;;21.25;15.07;;;15.30;99.90;;;;;;5062500;28;20075;-72
2023/08/30 10:06:33;;;;;;;22.05;14.40;;;15.30;99.90;;;;;;5055160;28;20110;-72
2023/08/30 10:08:59;;;;;;;19.63;14.80;;;15.20;99.90;;;;;;5042992;28;20044;-72
2023/08/30 10:11:29;;;;;;;19.25;14.43;;;15.10;99.90;;;;;;5042509;28;20400;-72
2023/08/30 10:13:55;;;;;;;22.17;15.70;;;15.10;99.90;;;;;;5068461;28;20079;-72
2023/08/30 10:16:24;;;;;;;19.45;15.05;;;15.10;99.90;;;;;;5069571;28;20057;-72
2023/08/30 10:18:59;;;;;;;20.08;15.02;;;15.00;99.90;;;;;;5046452;28;20053;-72
2023/08/30 10:21:26;;;;;;;19.70;15.13;;;14.90;99.90;;;;;;5074470;28;20143;-73
2023/08/30 10:23:55;;;;;;;20.75;16.25;;;14.90;99.90;;;;;;5049695;28;20048;-72
2023/08/30 10:26:24;;;;;;;20.08;15.85;;;14.90;99.90;;;;;;5067143;28;20040;-72
2023/08/30 10:28:53;;;;;;;19.40;14.88;;;14.90;99.90;;;;;;5035102;28;20032;-72
2023/08/30 10:31:18;;;;;;;23.20;16.73;;;15.00;99.90;;;;;;5071466;28;20070;-73
2023/08/30 10:33:55;;;;;;;21.02;15.32;;;15.10;99.90;;;;;;5069702;28;20048;-73
2023/08/30 10:36:28;;;;;;;21.63;16.60;;;15.10;99.90;;;;;;5059662;28;20049;-72
2023/08/30 10:38:54;;;;;;;22.90;16.90;;;15.20;99.90;;;;;;5050837;28;20135;-73
2023/08/30 10:41:25;;;;;;;21.52;17.13;;;15.30;99.90;;;;;;5061870;28;20106;-73
2023/08/30 10:44:03;;;;;;;20.90;16.75;;;15.40;99.90;;;;;;5066743;28;20048;-73
2023/08/30 10:46:33;;;;;;;18.92;15.30;;;15.50;99.90;;;;;;5067277;28;20044;-72
2023/08/30 10:49:11;;;;;;;18.98;13.90;;;15.60;99.90;;;;;;5047621;28;20040;-83
2023/08/30 10:51:40;;;;;;;18.02;14.70;;;15.80;99.90;;;;;;5056930;28;20044;-72
2023/08/30 10:54:16;;;;;;;18.23;14.02;;;15.90;99.90;;;;;;5071393;28;20068;-72
2023/08/30 10:56:56;;;;;;;18.10;12.27;;;15.90;99.90;;;;;;5077031;28;20040;-72
2023/08/30 10:59:23;;;;;;;16.77;13.88;;;15.80;99.90;;;;;;5059469;28;20514;-72
2023/08/30 11:01:55;;;;;;;14.43;10.25;;;15.80;99.90;;;;;;5065406;28;20041;-72
2023/08/30 11:04:24;;;;;;;11.88;9.32;;;15.70;99.90;;;;;;5071095;28;20058;-71
2023/08/30 11:06:51;;;;;;;10.45;8.13;;;15.60;99.90;;;;;;5068124;28;20037;-71
2023/08/30 11:09:22;;;;;;;9.98;8.18;;;15.60;99.90;;;;;;5053727;28;20633;-72
2023/08/30 11:11:48;;;;;;;9.55;7.97;;;15.50;99.90;;;;;;5074373;28;20406;-72
2023/08/30 11:14:15;;;;;;;10.30;8.55;;;15.40;99.90;;;;;;5057920;28;20048;-71
2023/08/30 11:16:41;;;;;;;12.25;9.40;;;15.40;99.90;;;;;;5067653;28;20071;-72
2023/08/30 11:19:09;;;;;;;10.93;8.95;;;15.30;99.90;;;;;;5045709;28;20059;-72
2023/08/30 11:21:38;;;;;;;10.43;8.90;;;15.20;99.90;;;;;;5074430;28;20045;-72
2023/08/30 11:24:07;;;;;;;11.63;9.32;;;15.10;99.90;;;;;;5068412;28;20048;-72
2023/08/30 11:26:33;;;;;;;11.35;9.07;;;15.10;99.90;;;;;;5050164;28;20041;-72
2023/08/30 11:29:05;;;;;;;11.50;9.98;;;15.10;99.90;;;;;;5053559;28;20156;-72
2023/08/30 11:31:30;;;;;;;14.27;10.50;;;15.10;99.90;;;;;;5074819;28;20037;-72
2023/08/30 11:33:58;;;;;;;12.15;10.07;;;15.10;99.90;;;;;;5052530;28;20116;-72
2023/08/30 11:36:28;;;;;;;12.20;9.85;;;15.00;99.90;;;;;;5041240;28;20102;-72
2023/08/30 11:38:54;;;;;;;13.98;10.68;;;15.00;99.90;;;;;;5063411;28;20084;-72
2023/08/30 11:41:21;;;;;;;13.73;10.45;;;15.10;99.90;;;;;;5053159;28;20044;-72
2023/08/30 11:43:50;;;;;;;12.27;10.70;;;15.00;99.90;;;;;;5045482;28;20366;-72
2023/08/30 11:46:20;;;;;;;13.02;10.57;;;15.00;99.90;;;;;;5032206;28;20100;-72
2023/08/30 11:48:48;;;;;;;13.18;11.00;;;15.00;99.90;;;;;;5066152;28;20032;-72
2023/08/30 11:51:14;;;;;;;14.30;11.20;;;15.10;99.90;;;;;;5069811;28;20363;-72
2023/08/30 11:53:41;;;;;;;14.02;11.45;;;15.00;99.90;;;;;;5072438;28;20420;-72
2023/08/30 11:56:08;;;;;;;14.05;11.57;;;15.00;99.90;;;;;;5055466;28;20080;-72
2023/08/30 11:58:34;;;;;;;15.23;12.77;;;15.00;99.90;;;;;;5068619;28;20846;-72
2023/08/30 12:01:01;;;;;;;15.35;12.05;;;15.00;99.90;;;;;;5064880;28;20045;-72
2023/08/30 12:03:28;;;;;;;14.35;12.57;;;15.00;99.90;;;;;;5044532;28;20051;-72
2023/08/30 12:05:54;;;;;;;15.45;12.00;;;15.00;99.90;;;;;;5059382;28;20482;-72
2023/08/30 12:08:25;;;;;;;14.38;12.18;;;15.00;99.90;;;;;;5030259;28;20059;-72
2023/08/30 12:10:51;;;;;;;16.98;13.40;;;15.00;99.90;;;;;;5046137;28;20416;-72
2023/08/30 12:13:28;;;;;;;17.45;13.65;;;15.00;99.90;;;;;;5046630;28;20049;-72
2023/08/30 12:15:56;;;;;;;15.45;13.73;;;15.10;99.90;;;;;;5071159;28;20398;-71
2023/08/30 12:18:28;;;;;;;16.98;14.05;;;15.10;99.90;;;;;;5067102;28;20067;-72
2023/08/30 12:20:54;;;;;;;;;;;15.20;99.90;;;;;;5061534;28;20057;-72
2023/08/30 12:23:22;;;;;;;16.92;13.45;;;15.20;99.90;;;;;;5059658;28;19979;-72
2023/08/30 12:26:06;;;;;;;19.48;14.50;;;15.20;99.90;;;;;;5047511;28;20037;-72
2023/08/30 12:28:36;;;;;;;16.38;14.50;;;15.20;99.90;;;;;;5056201;28;20492;-72